Seabourn Spirit — C6FR4 — position and weather

sailwx.info

Track history (hours):
 
Tides and Currents Weather Stations Pressure Air Temp Water Temp Dewpoint Dewpoint Depression Visibility Wind Speed Wind Dir Waves Ship Positions

Seabourn Spirit

Operator: Cunard Seabourn

Last reported at 2018-Jun-22 09:00 UTC. Time now 2018-Jun-22 09:06 UTC.
Position N 60°52' E 007°08'.

Length 133 m; draft 5.1 m.

Type: Ship. MMSI: 311083000.

Date/timePositionNaut miles runAvg speedWind from/ knotsBaromVisibWave heightAir tempDewpointWater temp
2018-Jun-22 09:00N 60°52' E 007°08'0 0.2
2018-Jun-22 08:30N 60°52' E 007°08'0 0.0
2018-Jun-22 08:00N 60°52' E 007°08'0 0.0
2018-Jun-22 07:30N 60°52' E 007°08'0 0.0
2018-Jun-22 07:00N 60°52' E 007°08'0 0.1
2018-Jun-22 06:30N 60°52' E 007°08'3 6.6
2018-Jun-22 06:01N 60°55' E 007°10'611.6
2018-Jun-22 05:30N 61°00' E 007°03'611.9
2018-Jun-22 05:00N 61°06' E 006°58'612.0
2018-Jun-22 04:30N 61°09' E 006°49'611.9
2018-Jun-22 04:00N 61°11' E 006°36'611.5
2018-Jun-22 03:30N 61°06' E 006°29'611.8
2018-Jun-22 03:00N 61°06' E 006°17'612.1
2018-Jun-22 02:30N 61°08' E 006°04'612.1
2018-Jun-22 02:00N 61°08' E 005°52'612.1
2018-Jun-22 01:30N 61°07' E 005°40'611.7
2018-Jun-22 01:00N 61°05' E 005°29'611.4
2018-Jun-22 00:30N 61°05' E 005°17'713.2
2018-Jun-22 00:00N 61°05' E 005°03'713.8
2018-Jun-21 23:30N 61°01' E 004°51'613.1
2018-Jun-21 23:01N 60°56' E 004°42'612.1
2018-Jun-21 22:29N 60°50' E 004°41'613.0
2018-Jun-21 22:00N 60°45' E 004°48'612.7
2018-Jun-21 21:30N 60°39' E 004°52'510.4
2018-Jun-21 21:00N 60°34' E 004°55'611.1
2018-Jun-21 20:30N 60°29' E 004°60'611.0
2018-Jun-21 20:00N 60°24' E 005°07'510.0
2018-Jun-21 19:30N 60°20' E 005°12'510.7
2018-Jun-21 19:00N 60°15' E 005°10'5 9.8
2018-Jun-21 18:31N 60°10' E 005°08'611.1
2018-Jun-21 18:00N 60°08' E 004°57'611.8
2018-Jun-21 17:29N 60°02' E 004°55'612.8
2018-Jun-21 17:00N 59°56' E 004°53'612.5
2018-Jun-21 16:30N 59°49' E 004°54'612.5
2018-Jun-21 16:00N 59°43' E 004°54'612.4
2018-Jun-21 15:30N 59°37' E 004°54'612.5
2018-Jun-21 15:00N 59°31' E 004°54'611.9
2018-Jun-21 14:30N 59°25' E 004°56'611.9
2018-Jun-21 14:00N 59°19' E 004°58'612.1
2018-Jun-21 13:30N 59°13' E 005°02'612.9
2018-Jun-21 13:00N 59°08' E 005°09'612.4
2018-Jun-21 12:30N 59°06' E 005°20'611.6
2018-Jun-21 12:00N 59°06' E 005°32'611.4
2018-Jun-21 11:30N 59°01' E 005°38'4 8.1
2018-Jun-21 11:00N 58°58' E 005°44'0 0.0
2018-Jun-21 10:30N 58°58' E 005°44'0 0.0
2018-Jun-21 10:00N 58°58' E 005°44'0 0.0
2018-Jun-21 09:30N 58°58' E 005°44'0 0.0
2018-Jun-21 09:00N 58°58' E 005°44'0 0.0
2018-Jun-21 08:30N 58°58' E 005°44'0 0.0
2018-Jun-21 08:00N 58°58' E 005°44'0 0.0
2018-Jun-21 07:30N 58°58' E 005°44'0 0.0
2018-Jun-21 07:00N 58°58' E 005°44'0 0.0
2018-Jun-21 06:30N 58°58' E 005°44'0 0.0
2018-Jun-21 06:00N 58°58' E 005°44'0 0.0
2018-Jun-21 05:30N 58°58' E 005°44'0 0.1
2018-Jun-21 05:01N 58°58' E 005°44'3 5.9
2018-Jun-21 04:30N 59°01' E 005°40'4 7.4
2018-Jun-21 04:00N 59°01' E 005°33'611.4
2018-Jun-21 03:30N 58°56' E 005°33'510.4
2018-Jun-21 03:00N 58°51' E 005°30'4 9.0
2018-Jun-21 02:31N 58°47' E 005°25'4 8.9
2018-Jun-21 02:01N 58°43' E 005°23'4 8.6
2018-Jun-21 01:30N 58°38' E 005°22'4 9.0
2018-Jun-21 01:00N 58°34' E 005°23'510.6
2018-Jun-21 00:30N 58°29' E 005°27'510.8
2018-Jun-21 00:00N 58°24' E 005°32'510.3
2018-Jun-20 23:30N 58°20' E 005°38'4 9.2
2018-Jun-20 23:00N 58°17' E 005°44'4 7.9
2018-Jun-20 22:30N 58°14' E 005°48'4 7.7
2018-Jun-20 22:00N 58°11' E 005°53'4 7.9
2018-Jun-20 21:30N 58°08' E 005°58'3 6.7
2018-Jun-20 21:00N 58°05' E 006°02'4 7.0
2018-Jun-20 20:30N 58°03' E 006°07'4 8.1
2018-Jun-20 20:00N 58°00' E 006°13'4 8.6
2018-Jun-20 19:30N 57°58' E 006°20'4 8.7
2018-Jun-20 19:01N 57°55' E 006°26'4 8.7
2018-Jun-20 18:31N 57°52' E 006°32'5 8.9
2018-Jun-20 17:59N 57°49' E 006°39'4 9.2
2018-Jun-20 17:31N 57°49' E 006°47'5 9.5
2018-Jun-20 17:01N 57°49' E 006°56'5 9.6
2018-Jun-20 16:29N 57°48' E 007°05'5 9.4
2018-Jun-20 16:00N 57°48' E 007°14'5 9.4
2018-Jun-20 15:30N 57°47' E 007°22'5 9.4
2018-Jun-20 15:00N 57°47' E 007°31'5 9.6
2018-Jun-20 14:30N 57°46' E 007°40'712.6
2018-Jun-20 13:58N 57°46' E 007°53'612.7
2018-Jun-20 13:29N 57°46' E 008°04'9610.9
2018-Jun-20 04:42N 57°40' E 011°03'211.1
2018-Jun-20 04:30N 57°38' E 011°06'510.9
2018-Jun-20 04:00N 57°35' E 011°14'611.3
2018-Jun-20 03:30N 57°31' E 011°22'510.6
2018-Jun-20 03:00N 57°27' E 011°27'611.0
2018-Jun-20 02:28N 57°21' E 011°31'79 9.8
2018-Jun-19 18:28N 56°09' E 012°29'4 9.8
2018-Jun-19 18:00N 56°06' E 012°35'4 8.8
2018-Jun-19 17:30N 56°03' E 012°40'4 8.9
2018-Jun-19 17:00N 55°58' E 012°43'611.1
2018-Jun-19 16:30N 55°53' E 012°44'510.0
2018-Jun-19 16:00N 55°48' E 012°44'510.5
2018-Jun-19 15:30N 55°43' E 012°39'3 3.7
2018-Jun-19 14:49N 55°41' E 012°36'0 0.0
2018-Jun-19 14:28N 55°41' E 012°36'0 0.0
2018-Jun-19 13:58N 55°41' E 012°36'0 0.0
2018-Jun-19 13:19N 55°41' E 012°36'0 0.0
2018-Jun-19 12:19N 55°41' E 012°36'0 0.0
2018-Jun-19 11:58N 55°41' E 012°36'0 0.0
2018-Jun-19 11:25N 55°41' E 012°36'0 0.0
2018-Jun-19 10:55N 55°41' E 012°36'0 0.0
2018-Jun-19 10:28N 55°41' E 012°36'0 0.0
2018-Jun-19 09:55N 55°41' E 012°36'0 0.0
2018-Jun-19 09:24N 55°41' E 012°36'0 0.0
2018-Jun-19 08:58N 55°41' E 012°36'0 0.0
2018-Jun-19 08:30N 55°41' E 012°36'0 0.0
2018-Jun-19 08:01N 55°41' E 012°36'0 0.0
2018-Jun-19 07:30N 55°41' E 012°36'0 0.0
2018-Jun-19 06:58N 55°41' E 012°36'0 0.0
2018-Jun-19 06:31N 55°41' E 012°36'0 0.0
2018-Jun-19 06:01N 55°41' E 012°36'0 0.0
2018-Jun-19 05:31N 55°41' E 012°36'0 0.0
2018-Jun-19 05:00N 55°41' E 012°36'0 0.0
2018-Jun-19 04:31N 55°41' E 012°36'0 0.3
2018-Jun-19 04:01N 55°42' E 012°36'1 2.7
2018-Jun-19 03:31N 55°41' E 012°39'510.4
2018-Jun-19 03:01N 55°37' E 012°42'510.2
2018-Jun-19 02:31N 55°31' E 012°43'510.0
2018-Jun-19 02:01N 55°26' E 012°43'611.7
2018-Jun-19 01:30N 55°21' E 012°40'5 9.7
2018-Jun-19 01:00N 55°17' E 012°46'510.8
2018-Jun-19 00:30N 55°16' E 012°55'510.9
2018-Jun-19 00:01N 55°16' E 013°04'610.7
2018-Jun-18 23:30N 55°15' E 013°14'25 8.6
2018-Jun-18 20:39N 55°14' E 013°57'4 8.9
2018-Jun-18 20:12N 55°14' E 014°04'2 8.9
2018-Jun-18 19:57N 55°14' E 014°08'4 8.8
2018-Jun-18 19:27N 55°14' E 014°16'5 9.0
2018-Jun-18 18:56N 55°18' E 014°21'5 9.2
2018-Jun-18 18:26N 55°21' E 014°26'4 9.1
2018-Jun-18 18:00N 55°24' E 014°30'5 9.3
2018-Jun-18 17:30N 55°25' E 014°38'510.7
2018-Jun-18 17:00N 55°22' E 014°46'611.1
2018-Jun-18 16:30N 55°18' E 014°52'611.3
2018-Jun-18 16:00N 55°14' E 014°58'1 1.1
2018-Jun-18 15:16N 55°13' E 014°59'0 0.0
2018-Jun-18 14:10N 55°13' E 014°59'0 0.0
2018-Jun-18 12:34N 55°13' E 014°59'0 0.0
2018-Jun-18 12:16N 55°13' E 014°59'0 0.0
2018-Jun-18 11:22N 55°13' E 014°59'0 0.0
2018-Jun-18 10:58N 55°13' E 014°59'0 0.0
2018-Jun-18 10:22N 55°13' E 014°59'0 0.1
2018-Jun-18 09:58N 55°13' E 014°59'0 0.0
2018-Jun-18 09:28N 55°13' E 014°59'0 0.0
2018-Jun-18 08:58N 55°13' E 014°59'0 0.0
2018-Jun-18 08:28N 55°13' E 014°59'0 0.0
2018-Jun-18 07:58N 55°13' E 014°59'0 0.7
2018-Jun-18 07:30N 55°13' E 014°59'5 9.4
2018-Jun-18 07:00N 55°17' E 015°04'510.5
2018-Jun-18 06:30N 55°21' E 015°09'510.5
2018-Jun-18 06:00N 55°25' E 015°15'810.3
2018-Jun-18 05:13N 55°32' E 015°23'17911.5
2018-Jun-17 13:37N 57°33' E 019°21'1411.9
2018-Jun-17 12:27N 57°44' E 019°37'2112.2
2018-Jun-17 10:45N 58°01' E 020°00'312.0
2018-Jun-17 10:30N 58°03' E 020°04'612.1
2018-Jun-17 10:00N 58°08' E 020°10'612.2
2018-Jun-17 09:30N 58°13' E 020°17'712.2
2018-Jun-17 08:58N 58°19' E 020°24'612.1
2018-Jun-17 08:30N 58°23' E 020°31'612.1
2018-Jun-17 08:00N 58°28' E 020°38'612.3
2018-Jun-17 07:30N 58°33' E 020°45'612.3
2018-Jun-17 07:00N 58°38' E 020°52'612.5
2018-Jun-17 06:30N 58°43' E 020°59'612.5
2018-Jun-17 06:00N 58°48' E 021°07'612.5
2018-Jun-17 05:30N 58°53' E 021°13'612.5
2018-Jun-17 05:00N 58°58' E 021°20'812.4
2018-Jun-17 04:21N 59°05' E 021°29'412.4
2018-Jun-17 04:00N 59°08' E 021°33'612.3
2018-Jun-17 03:30N 59°13' E 021°42'612.3
2018-Jun-17 03:00N 59°17' E 021°51'612.2
2018-Jun-17 02:30N 59°21' E 021°60'612.2
2018-Jun-17 02:00N 59°25' E 022°09'612.0
2018-Jun-17 01:30N 59°28' E 022°19'612.1
2018-Jun-17 01:00N 59°31' E 022°29'611.9
2018-Jun-17 00:30N 59°33' E 022°41'612.0
2018-Jun-17 00:00N 59°34' E 022°52'612.0
2018-Jun-16 23:30N 59°36' E 023°03'612.1
2018-Jun-16 23:00N 59°38' E 023°14'612.1
2018-Jun-16 22:30N 59°40' E 023°26'612.2
2018-Jun-16 22:00N 59°41' E 023°38'612.2
2018-Jun-16 21:30N 59°43' E 023°49'612.0
2018-Jun-16 21:00N 59°44' E 024°01'612.2
2018-Jun-16 20:30N 59°46' E 024°12'612.2
2018-Jun-16 20:00N 59°48' E 024°24'612.2
2018-Jun-16 19:30N 59°49' E 024°36'611.9
2018-Jun-16 19:00N 59°53' E 024°46'611.9
2018-Jun-16 18:30N 59°56' E 024°55'611.3
2018-Jun-16 18:00N 60°02' E 024°57'611.3
2018-Jun-16 17:30N 60°08' E 024°59'3 5.0
2018-Jun-16 17:01N 60°10' E 024°57'0 0.1
2018-Jun-16 16:30N 60°10' E 024°57'0 0.0
2018-Jun-16 16:00N 60°10' E 024°57'0 0.0
2018-Jun-16 15:30N 60°10' E 024°57'0 0.0
2018-Jun-16 15:00N 60°10' E 024°57'0 0.0
2018-Jun-16 14:30N 60°10' E 024°57'0 0.0
2018-Jun-16 13:57N 60°10' E 024°57'0 0.0
2018-Jun-16 13:30N 60°10' E 024°57'0 0.0
2018-Jun-16 13:00N 60°10' E 024°57'0 0.0
2018-Jun-16 12:30N 60°10' E 024°57'0 0.0
2018-Jun-16 12:00N 60°10' E 024°57'0 0.0
2018-Jun-16 11:30N 60°10' E 024°57'0 0.0
2018-Jun-16 11:00N 60°10' E 024°57'0 0.0
2018-Jun-16 10:30N 60°10' E 024°57'0 0.0
2018-Jun-16 10:00N 60°10' E 024°57'0 0.0
2018-Jun-16 09:30N 60°10' E 024°57'0 0.0
2018-Jun-16 09:00N 60°10' E 024°57'0 0.0
2018-Jun-16 08:30N 60°10' E 024°57'0 0.0
2018-Jun-16 08:00N 60°10' E 024°57'2 3.4
2018-Jun-16 07:30N 60°09' E 025°00'611.9
2018-Jun-16 07:00N 60°03' E 024°58'713.3
2018-Jun-16 06:30N 59°56' E 024°58'612.7
2018-Jun-16 06:00N 59°53' E 025°09'713.6
2018-Jun-16 05:30N 59°54' E 025°22'713.4
2018-Jun-16 05:00N 59°54' E 025°36'713.7
2018-Jun-16 04:30N 59°55' E 025°49'714.0
2018-Jun-16 04:01N 59°57' E 026°02'713.6
2018-Jun-16 03:30N 59°59' E 026°16'713.4
2018-Jun-16 03:01N 60°01' E 026°28'713.4
2018-Jun-16 02:30N 60°01' E 026°42'713.4
2018-Jun-16 01:59N 60°00' E 026°56'613.0
2018-Jun-16 01:31N 60°01' E 027°08'611.7
2018-Jun-16 01:00N 60°04' E 027°18'611.5
2018-Jun-16 00:31N 60°07' E 027°28'611.7
2018-Jun-16 00:00N 60°10' E 027°38'510.8
2018-Jun-15 23:30N 60°12' E 027°48'611.5
2018-Jun-15 23:00N 60°10' E 027°59'611.3
2018-Jun-15 22:30N 60°09' E 028°10'611.5
2018-Jun-15 22:01N 60°06' E 028°20'611.6
2018-Jun-15 21:31N 60°04' E 028°30'611.4
2018-Jun-15 21:00N 60°03' E 028°42'611.9
2018-Jun-15 20:30N 60°03' E 028°54'612.8
2018-Jun-15 20:01N 60°02' E 029°06'611.5
2018-Jun-15 19:30N 60°02' E 029°18'1510.9
2018-Jun-15 18:08N 59°58' E 029°47'210.8
2018-Jun-15 17:58N 59°57' E 029°50'510.7
2018-Jun-15 17:30N 59°55' E 029°59'5 9.5
2018-Jun-15 17:00N 59°54' E 030°08'3 5.4
2018-Jun-15 16:30N 59°54' E 030°13'3 5.2
2018-Jun-15 16:00N 59°56' E 030°17'0 0.3
2018-Jun-15 15:28N 59°56' E 030°17'0 0.0
2018-Jun-15 14:55N 59°56' E 030°17'0 0.0
2018-Jun-15 14:25N 59°56' E 030°17'0 0.0
2018-Jun-15 13:58N 59°56' E 030°17'0 0.0
2018-Jun-15 13:28N 59°56' E 030°17'0 0.0
2018-Jun-15 12:58N 59°56' E 030°17'0 0.0
2018-Jun-15 12:28N 59°56' E 030°17'0 0.0
2018-Jun-15 11:49N 59°56' E 030°17'0 0.0
2018-Jun-15 11:25N 59°56' E 030°17'0 0.0
2018-Jun-15 10:58N 59°56' E 030°17'0 0.0
2018-Jun-15 10:28N 59°56' E 030°17'0 0.0
2018-Jun-15 09:58N 59°56' E 030°17'0 0.0
2018-Jun-15 09:28N 59°56' E 030°17'0 0.0
2018-Jun-15 08:58N 59°56' E 030°17'0 0.0
2018-Jun-15 08:28N 59°56' E 030°17'0 0.0
2018-Jun-15 07:58N 59°56' E 030°17'0 0.0
2018-Jun-15 07:28N 59°56' E 030°17'0 0.0
2018-Jun-15 06:55N 59°56' E 030°17'0 0.0
2018-Jun-15 06:25N 59°56' E 030°17'0 0.0
2018-Jun-15 05:58N 59°56' E 030°17'0 0.0
2018-Jun-15 05:25N 59°56' E 030°17'0 0.0
2018-Jun-15 04:55N 59°56' E 030°17'0 0.0
2018-Jun-15 04:28N 59°56' E 030°17'0 0.0
2018-Jun-15 03:55N 59°56' E 030°17'0 0.0
2018-Jun-15 03:28N 59°56' E 030°17'0 0.0
2018-Jun-15 02:58N 59°56' E 030°17'0 0.0
2018-Jun-15 02:28N 59°56' E 030°17'0 0.0
2018-Jun-15 01:58N 59°56' E 030°17'0 0.0
2018-Jun-15 01:25N 59°56' E 030°17'0 0.0
2018-Jun-15 00:58N 59°56' E 030°17'0 0.0
2018-Jun-15 00:25N 59°56' E 030°17'0 0.0
2018-Jun-14 23:58N 59°56' E 030°17'0 0.0
2018-Jun-14 23:25N 59°56' E 030°17'0 0.0
2018-Jun-14 22:59N 59°56' E 030°17'0 0.0
2018-Jun-14 22:25N 59°56' E 030°17'0 0.0
2018-Jun-14 21:58N 59°56' E 030°17'0 0.0
2018-Jun-14 21:28N 59°56' E 030°17'0 0.0
2018-Jun-14 20:55N 59°56' E 030°17'0 0.0
2018-Jun-14 20:29N 59°56' E 030°17'0 0.0
2018-Jun-14 19:55N 59°56' E 030°17'0 0.0
2018-Jun-14 19:29N 59°56' E 030°17'0 0.0
2018-Jun-14 18:56N 59°56' E 030°17'0 0.0
2018-Jun-14 18:28N 59°56' E 030°17'0 0.0
2018-Jun-14 17:55N 59°56' E 030°17'0 0.0
2018-Jun-14 17:26N 59°56' E 030°17'0 0.0
2018-Jun-14 16:55N 59°56' E 030°17'0 0.0
2018-Jun-14 16:25N 59°56' E 030°17'0 0.0
2018-Jun-14 15:55N 59°56' E 030°17'0 0.0
2018-Jun-14 15:25N 59°56' E 030°17'0 0.0
2018-Jun-14 14:55N 59°56' E 030°17'0 0.0
2018-Jun-14 14:28N 59°56' E 030°17'0 0.0
2018-Jun-14 13:58N 59°56' E 030°17'0 0.0
2018-Jun-14 13:25N 59°56' E 030°17'0 0.0
2018-Jun-14 12:58N 59°56' E 030°17'0 0.0
2018-Jun-14 12:25N 59°56' E 030°17'0 0.0
2018-Jun-14 11:55N 59°56' E 030°17'0 0.0
2018-Jun-14 11:25N 59°56' E 030°17'0 0.0
2018-Jun-14 10:55N 59°56' E 030°17'0 0.0
2018-Jun-14 10:28N 59°56' E 030°17'0 0.0
2018-Jun-14 09:58N 59°56' E 030°17'0 0.0
2018-Jun-14 09:28N 59°56' E 030°17'0 0.0
2018-Jun-14 08:55N 59°56' E 030°17'0 0.0
2018-Jun-14 08:28N 59°56' E 030°17'0 0.0
2018-Jun-14 07:55N 59°56' E 030°17'0 0.0
2018-Jun-14 07:28N 59°56' E 030°17'0 0.4
2018-Jun-14 07:00N 59°56' E 030°17'2 4.5
2018-Jun-14 06:30N 59°54' E 030°14'3 5.0
2018-Jun-14 06:00N 59°53' E 030°09'4 8.0
2018-Jun-14 05:30N 59°55' E 030°02'611.8
2018-Jun-14 04:57N 59°57' E 029°50'1210.5
2018-Jun-14 03:50N 60°01' E 029°27'3 9.7
2018-Jun-14 03:30N 60°02' E 029°21'511.0
2018-Jun-14 03:00N 60°02' E 029°10'510.5
2018-Jun-14 02:30N 60°02' E 028°59'510.8
2018-Jun-14 02:00N 60°02' E 028°49'511.0
2018-Jun-14 01:30N 60°02' E 028°38'611.3
2018-Jun-14 01:00N 60°03' E 028°26'612.0
2018-Jun-14 00:30N 60°07' E 028°17'612.0
2018-Jun-14 00:00N 60°09' E 028°05'612.2
2018-Jun-13 23:30N 60°10' E 027°54'611.2
2018-Jun-13 23:00N 60°09' E 027°42'612.1
2018-Jun-13 22:30N 60°06' E 027°32'611.9
2018-Jun-13 22:00N 60°03' E 027°22'714.0
2018-Jun-13 21:30N 59°59' E 027°10'713.8
2018-Jun-13 21:01N 59°58' E 026°56'714.4
2018-Jun-13 20:30N 59°59' E 026°42'714.5
2018-Jun-13 20:00N 59°58' E 026°28'714.3
2018-Jun-13 19:30N 59°55' E 026°14'714.3
2018-Jun-13 19:00N 59°53' E 026°00'714.1
2018-Jun-13 18:30N 59°52' E 025°47'714.2
2018-Jun-13 18:01N 59°50' E 025°33'714.3
2018-Jun-13 17:31N 59°49' E 025°19'714.2
2018-Jun-13 17:00N 59°48' E 025°05'713.7
2018-Jun-13 16:30N 59°46' E 024°53'713.3
2018-Jun-13 16:01N 59°40' E 024°45'612.4
2018-Jun-13 15:31N 59°34' E 024°43'612.5
2018-Jun-13 15:00N 59°28' E 024°46'1 1.6
2018-Jun-13 14:25N 59°27' E 024°46'0 0.0
2018-Jun-13 14:00N 59°27' E 024°46'0 0.0
2018-Jun-13 13:29N 59°27' E 024°46'0 0.0
2018-Jun-13 12:58N 59°27' E 024°46'0 0.0
2018-Jun-13 12:28N 59°27' E 024°46'0 0.0
2018-Jun-13 11:58N 59°27' E 024°46'0 0.0
2018-Jun-13 11:29N 59°27' E 024°46'0 0.0
2018-Jun-13 10:59N 59°27' E 024°46'0 0.0
2018-Jun-13 10:28N 59°27' E 024°46'0 0.0
2018-Jun-13 09:58N 59°27' E 024°46'0 0.0
2018-Jun-13 09:30N 59°27' E 024°46'0 0.0
2018-Jun-13 08:59N 59°27' E 024°46'0 0.0
2018-Jun-13 08:30N 59°27' E 024°46'3 6.4
2018-Jun-13 08:00N 59°30' E 024°43'611.0
2018-Jun-13 07:30N 59°30' E 024°32'611.7
2018-Jun-13 07:00N 59°30' E 024°21'2814.0
2018-Jun-13 04:59N 59°27' E 023°25'714.2
2018-Jun-13 04:30N 59°26' E 023°12'714.2
2018-Jun-13 03:59N 59°25' E 022°58'3014.0
2018-Jun-13 01:50N 59°25' E 021°59'513.9
2018-Jun-13 01:30N 59°25' E 021°50'713.8
2018-Jun-13 01:00N 59°25' E 021°36'714.0
2018-Jun-13 00:31N 59°26' E 021°23'713.9
2018-Jun-13 00:00N 59°27' E 021°09'713.8
2018-Jun-12 23:29N 59°27' E 020°55'1013.6
2018-Jun-12 22:46N 59°28' E 020°36'513.6
2018-Jun-12 22:22N 59°28' E 020°25'513.6
2018-Jun-12 21:59N 59°28' E 020°15'611.3
2018-Jun-12 21:28N 59°31' E 020°05'713.3
2018-Jun-12 20:55N 59°37' E 019°57'613.7
2018-Jun-12 20:29N 59°42' E 019°49'713.6
2018-Jun-12 20:00N 59°46' E 019°40'713.9
2018-Jun-12 19:30N 59°46' E 019°26'713.2
2018-Jun-12 19:00N 59°44' E 019°14'713.5
2018-Jun-12 18:29N 59°42' E 019°01'5 9.5
2018-Jun-12 17:59N 59°39' E 018°53'611.7
2018-Jun-12 17:30N 59°35' E 018°44'610.9
2018-Jun-12 16:59N 59°33' E 018°35'5 9.8
2018-Jun-12 16:28N 59°29' E 018°27'5 9.9
2018-Jun-12 16:01N 59°25' E 018°25'3 6.2
2018-Jun-12 15:30N 59°22' E 018°25'4 9.0
2018-Jun-12 15:00N 59°22' E 018°16'510.2
2018-Jun-12 14:30N 59°19' E 018°07'1 2.0
2018-Jun-12 14:00N 59°19' E 018°05'0 0.0
2018-Jun-12 13:30N 59°19' E 018°05'0 0.0
2018-Jun-12 13:00N 59°19' E 018°05'0 0.0
2018-Jun-12 12:30N 59°19' E 018°05'0 0.0
2018-Jun-12 12:00N 59°19' E 018°05'0 0.0
2018-Jun-12 11:30N 59°19' E 018°05'0 0.0
2018-Jun-12 11:00N 59°19' E 018°05'0 0.0
2018-Jun-12 10:30N 59°19' E 018°05'0 0.0
2018-Jun-12 10:00N 59°19' E 018°05'0 0.0
2018-Jun-12 09:30N 59°19' E 018°05'  
Track history (hours):
 
Tides and Currents Weather Stations Pressure Air Temp Water Temp Dewpoint Dewpoint Depression Visibility Wind Speed Wind Dir Waves Ship Positions

Seabourn Spirit

Operator: Cunard Seabourn

Last reported at 2018-Jun-22 09:00 UTC. Time now 2018-Jun-22 09:06 UTC.
Position N 60°52' E 007°08'.

Length 133 m; draft 5.1 m.

Type: Ship. MMSI: 311083000.

Date/timePositionNaut miles runAvg speedWind from/ knotsBaromVisibWave heightAir tempDewpointWater temp
2018-Jun-22 09:00N 60°52' E 007°08'0 0.2
2018-Jun-22 08:30N 60°52' E 007°08'0 0.0
2018-Jun-22 08:00N 60°52' E 007°08'0 0.0
2018-Jun-22 07:30N 60°52' E 007°08'0 0.0
2018-Jun-22 07:00N 60°52' E 007°08'0 0.1
2018-Jun-22 06:30N 60°52' E 007°08'3 6.6
2018-Jun-22 06:01N 60°55' E 007°10'611.6
2018-Jun-22 05:30N 61°00' E 007°03'611.9
2018-Jun-22 05:00N 61°06' E 006°58'612.0
2018-Jun-22 04:30N 61°09' E 006°49'611.9
2018-Jun-22 04:00N 61°11' E 006°36'611.5
2018-Jun-22 03:30N 61°06' E 006°29'611.8
2018-Jun-22 03:00N 61°06' E 006°17'612.1
2018-Jun-22 02:30N 61°08' E 006°04'612.1
2018-Jun-22 02:00N 61°08' E 005°52'612.1
2018-Jun-22 01:30N 61°07' E 005°40'611.7
2018-Jun-22 01:00N 61°05' E 005°29'611.4
2018-Jun-22 00:30N 61°05' E 005°17'713.2
2018-Jun-22 00:00N 61°05' E 005°03'713.8
2018-Jun-21 23:30N 61°01' E 004°51'613.1
2018-Jun-21 23:01N 60°56' E 004°42'612.1
2018-Jun-21 22:29N 60°50' E 004°41'613.0
2018-Jun-21 22:00N 60°45' E 004°48'612.7
2018-Jun-21 21:30N 60°39' E 004°52'510.4
2018-Jun-21 21:00N 60°34' E 004°55'611.1
2018-Jun-21 20:30N 60°29' E 004°60'611.0
2018-Jun-21 20:00N 60°24' E 005°07'510.0
2018-Jun-21 19:30N 60°20' E 005°12'510.7
2018-Jun-21 19:00N 60°15' E 005°10'5 9.8
2018-Jun-21 18:31N 60°10' E 005°08'611.1
2018-Jun-21 18:00N 60°08' E 004°57'611.8
2018-Jun-21 17:29N 60°02' E 004°55'612.8
2018-Jun-21 17:00N 59°56' E 004°53'612.5
2018-Jun-21 16:30N 59°49' E 004°54'612.5
2018-Jun-21 16:00N 59°43' E 004°54'612.4
2018-Jun-21 15:30N 59°37' E 004°54'612.5
2018-Jun-21 15:00N 59°31' E 004°54'611.9
2018-Jun-21 14:30N 59°25' E 004°56'611.9
2018-Jun-21 14:00N 59°19' E 004°58'612.1
2018-Jun-21 13:30N 59°13' E 005°02'612.9
2018-Jun-21 13:00N 59°08' E 005°09'612.4
2018-Jun-21 12:30N 59°06' E 005°20'611.6
2018-Jun-21 12:00N 59°06' E 005°32'611.4
2018-Jun-21 11:30N 59°01' E 005°38'4 8.1
2018-Jun-21 11:00N 58°58' E 005°44'0 0.0
2018-Jun-21 10:30N 58°58' E 005°44'0 0.0
2018-Jun-21 10:00N 58°58' E 005°44'0 0.0
2018-Jun-21 09:30N 58°58' E 005°44'0 0.0
2018-Jun-21 09:00N 58°58' E 005°44'0 0.0
2018-Jun-21 08:30N 58°58' E 005°44'0 0.0
2018-Jun-21 08:00N 58°58' E 005°44'0 0.0
2018-Jun-21 07:30N 58°58' E 005°44'0 0.0
2018-Jun-21 07:00N 58°58' E 005°44'0 0.0
2018-Jun-21 06:30N 58°58' E 005°44'0 0.0
2018-Jun-21 06:00N 58°58' E 005°44'0 0.0
2018-Jun-21 05:30N 58°58' E 005°44'0 0.1
2018-Jun-21 05:01N 58°58' E 005°44'3 5.9
2018-Jun-21 04:30N 59°01' E 005°40'4 7.4
2018-Jun-21 04:00N 59°01' E 005°33'611.4
2018-Jun-21 03:30N 58°56' E 005°33'510.4
2018-Jun-21 03:00N 58°51' E 005°30'4 9.0
2018-Jun-21 02:31N 58°47' E 005°25'4 8.9
2018-Jun-21 02:01N 58°43' E 005°23'4 8.6
2018-Jun-21 01:30N 58°38' E 005°22'4 9.0
2018-Jun-21 01:00N 58°34' E 005°23'510.6
2018-Jun-21 00:30N 58°29' E 005°27'510.8
2018-Jun-21 00:00N 58°24' E 005°32'510.3
2018-Jun-20 23:30N 58°20' E 005°38'4 9.2
2018-Jun-20 23:00N 58°17' E 005°44'4 7.9
2018-Jun-20 22:30N 58°14' E 005°48'4 7.7
2018-Jun-20 22:00N 58°11' E 005°53'4 7.9
2018-Jun-20 21:30N 58°08' E 005°58'3 6.7
2018-Jun-20 21:00N 58°05' E 006°02'4 7.0
2018-Jun-20 20:30N 58°03' E 006°07'4 8.1
2018-Jun-20 20:00N 58°00' E 006°13'4 8.6
2018-Jun-20 19:30N 57°58' E 006°20'4 8.7
2018-Jun-20 19:01N 57°55' E 006°26'4 8.7
2018-Jun-20 18:31N 57°52' E 006°32'5 8.9
2018-Jun-20 17:59N 57°49' E 006°39'4 9.2
2018-Jun-20 17:31N 57°49' E 006°47'5 9.5
2018-Jun-20 17:01N 57°49' E 006°56'5 9.6
2018-Jun-20 16:29N 57°48' E 007°05'5 9.4
2018-Jun-20 16:00N 57°48' E 007°14'5 9.4
2018-Jun-20 15:30N 57°47' E 007°22'5 9.4
2018-Jun-20 15:00N 57°47' E 007°31'5 9.6
2018-Jun-20 14:30N 57°46' E 007°40'712.6
2018-Jun-20 13:58N 57°46' E 007°53'612.7
2018-Jun-20 13:29N 57°46' E 008°04'9610.9
2018-Jun-20 04:42N 57°40' E 011°03'211.1
2018-Jun-20 04:30N 57°38' E 011°06'510.9
2018-Jun-20 04:00N 57°35' E 011°14'611.3
2018-Jun-20 03:30N 57°31' E 011°22'510.6
2018-Jun-20 03:00N 57°27' E 011°27'611.0
2018-Jun-20 02:28N 57°21' E 011°31'79 9.8
2018-Jun-19 18:28N 56°09' E 012°29'4 9.8
2018-Jun-19 18:00N 56°06' E 012°35'4 8.8
2018-Jun-19 17:30N 56°03' E 012°40'4 8.9
2018-Jun-19 17:00N 55°58' E 012°43'611.1
2018-Jun-19 16:30N 55°53' E 012°44'510.0
2018-Jun-19 16:00N 55°48' E 012°44'510.5
2018-Jun-19 15:30N 55°43' E 012°39'3 3.7
2018-Jun-19 14:49N 55°41' E 012°36'0 0.0
2018-Jun-19 14:28N 55°41' E 012°36'0 0.0
2018-Jun-19 13:58N 55°41' E 012°36'0 0.0
2018-Jun-19 13:19N 55°41' E 012°36'0 0.0
2018-Jun-19 12:19N 55°41' E 012°36'0 0.0
2018-Jun-19 11:58N 55°41' E 012°36'0 0.0
2018-Jun-19 11:25N 55°41' E 012°36'0 0.0
2018-Jun-19 10:55N 55°41' E 012°36'0 0.0
2018-Jun-19 10:28N 55°41' E 012°36'0 0.0
2018-Jun-19 09:55N 55°41' E 012°36'0 0.0
2018-Jun-19 09:24N 55°41' E 012°36'0 0.0
2018-Jun-19 08:58N 55°41' E 012°36'0 0.0
2018-Jun-19 08:30N 55°41' E 012°36'0 0.0
2018-Jun-19 08:01N 55°41' E 012°36'0 0.0
2018-Jun-19 07:30N 55°41' E 012°36'0 0.0
2018-Jun-19 06:58N 55°41' E 012°36'0 0.0
2018-Jun-19 06:31N 55°41' E 012°36'0 0.0
2018-Jun-19 06:01N 55°41' E 012°36'0 0.0
2018-Jun-19 05:31N 55°41' E 012°36'0 0.0
2018-Jun-19 05:00N 55°41' E 012°36'0 0.0
2018-Jun-19 04:31N 55°41' E 012°36'0 0.3
2018-Jun-19 04:01N 55°42' E 012°36'1 2.7
2018-Jun-19 03:31N 55°41' E 012°39'510.4
2018-Jun-19 03:01N 55°37' E 012°42'510.2
2018-Jun-19 02:31N 55°31' E 012°43'510.0
2018-Jun-19 02:01N 55°26' E 012°43'611.7
2018-Jun-19 01:30N 55°21' E 012°40'5 9.7
2018-Jun-19 01:00N 55°17' E 012°46'510.8
2018-Jun-19 00:30N 55°16' E 012°55'510.9
2018-Jun-19 00:01N 55°16' E 013°04'610.7
2018-Jun-18 23:30N 55°15' E 013°14'25 8.6
2018-Jun-18 20:39N 55°14' E 013°57'4 8.9
2018-Jun-18 20:12N 55°14' E 014°04'2 8.9
2018-Jun-18 19:57N 55°14' E 014°08'4 8.8
2018-Jun-18 19:27N 55°14' E 014°16'5 9.0
2018-Jun-18 18:56N 55°18' E 014°21'5 9.2
2018-Jun-18 18:26N 55°21' E 014°26'4 9.1
2018-Jun-18 18:00N 55°24' E 014°30'5 9.3
2018-Jun-18 17:30N 55°25' E 014°38'510.7
2018-Jun-18 17:00N 55°22' E 014°46'611.1
2018-Jun-18 16:30N 55°18' E 014°52'611.3
2018-Jun-18 16:00N 55°14' E 014°58'1 1.1
2018-Jun-18 15:16N 55°13' E 014°59'0 0.0
2018-Jun-18 14:10N 55°13' E 014°59'0 0.0
2018-Jun-18 12:34N 55°13' E 014°59'0 0.0
2018-Jun-18 12:16N 55°13' E 014°59'0 0.0
2018-Jun-18 11:22N 55°13' E 014°59'0 0.0
2018-Jun-18 10:58N 55°13' E 014°59'0 0.0
2018-Jun-18 10:22N 55°13' E 014°59'0 0.1
2018-Jun-18 09:58N 55°13' E 014°59'0 0.0
2018-Jun-18 09:28N 55°13' E 014°59'0 0.0
2018-Jun-18 08:58N 55°13' E 014°59'0 0.0
2018-Jun-18 08:28N 55°13' E 014°59'0 0.0
2018-Jun-18 07:58N 55°13' E 014°59'0 0.7
2018-Jun-18 07:30N 55°13' E 014°59'5 9.4
2018-Jun-18 07:00N 55°17' E 015°04'510.5
2018-Jun-18 06:30N 55°21' E 015°09'510.5
2018-Jun-18 06:00N 55°25' E 015°15'810.3
2018-Jun-18 05:13N 55°32' E 015°23'17911.5
2018-Jun-17 13:37N 57°33' E 019°21'1411.9
2018-Jun-17 12:27N 57°44' E 019°37'2112.2
2018-Jun-17 10:45N 58°01' E 020°00'312.0
2018-Jun-17 10:30N 58°03' E 020°04'612.1
2018-Jun-17 10:00N 58°08' E 020°10'612.2
2018-Jun-17 09:30N 58°13' E 020°17'712.2
2018-Jun-17 08:58N 58°19' E 020°24'612.1
2018-Jun-17 08:30N 58°23' E 020°31'612.1
2018-Jun-17 08:00N 58°28' E 020°38'612.3
2018-Jun-17 07:30N 58°33' E 020°45'612.3
2018-Jun-17 07:00N 58°38' E 020°52'612.5
2018-Jun-17 06:30N 58°43' E 020°59'612.5
2018-Jun-17 06:00N 58°48' E 021°07'612.5
2018-Jun-17 05:30N 58°53' E 021°13'612.5
2018-Jun-17 05:00N 58°58' E 021°20'812.4
2018-Jun-17 04:21N 59°05' E 021°29'412.4
2018-Jun-17 04:00N 59°08' E 021°33'612.3
2018-Jun-17 03:30N 59°13' E 021°42'612.3
2018-Jun-17 03:00N 59°17' E 021°51'612.2
2018-Jun-17 02:30N 59°21' E 021°60'612.2
2018-Jun-17 02:00N 59°25' E 022°09'612.0
2018-Jun-17 01:30N 59°28' E 022°19'612.1
2018-Jun-17 01:00N 59°31' E 022°29'611.9
2018-Jun-17 00:30N 59°33' E 022°41'612.0
2018-Jun-17 00:00N 59°34' E 022°52'612.0
2018-Jun-16 23:30N 59°36' E 023°03'612.1
2018-Jun-16 23:00N 59°38' E 023°14'612.1
2018-Jun-16 22:30N 59°40' E 023°26'612.2
2018-Jun-16 22:00N 59°41' E 023°38'612.2
2018-Jun-16 21:30N 59°43' E 023°49'612.0
2018-Jun-16 21:00N 59°44' E 024°01'612.2
2018-Jun-16 20:30N 59°46' E 024°12'612.2
2018-Jun-16 20:00N 59°48' E 024°24'612.2
2018-Jun-16 19:30N 59°49' E 024°36'611.9
2018-Jun-16 19:00N 59°53' E 024°46'611.9
2018-Jun-16 18:30N 59°56' E 024°55'611.3
2018-Jun-16 18:00N 60°02' E 024°57'611.3
2018-Jun-16 17:30N 60°08' E 024°59'3 5.0
2018-Jun-16 17:01N 60°10' E 024°57'0 0.1
2018-Jun-16 16:30N 60°10' E 024°57'0 0.0
2018-Jun-16 16:00N 60°10' E 024°57'0 0.0
2018-Jun-16 15:30N 60°10' E 024°57'0 0.0
2018-Jun-16 15:00N 60°10' E 024°57'0 0.0
2018-Jun-16 14:30N 60°10' E 024°57'0 0.0
2018-Jun-16 13:57N 60°10' E 024°57'0 0.0
2018-Jun-16 13:30N 60°10' E 024°57'0 0.0
2018-Jun-16 13:00N 60°10' E 024°57'0 0.0
2018-Jun-16 12:30N 60°10' E 024°57'0 0.0
2018-Jun-16 12:00N 60°10' E 024°57'0 0.0
2018-Jun-16 11:30N 60°10' E 024°57'0 0.0
2018-Jun-16 11:00N 60°10' E 024°57'0 0.0
2018-Jun-16 10:30N 60°10' E 024°57'0 0.0
2018-Jun-16 10:00N 60°10' E 024°57'0 0.0
2018-Jun-16 09:30N 60°10' E 024°57'0 0.0
2018-Jun-16 09:00N 60°10' E 024°57'0 0.0
2018-Jun-16 08:30N 60°10' E 024°57'0 0.0
2018-Jun-16 08:00N 60°10' E 024°57'2 3.4
2018-Jun-16 07:30N 60°09' E 025°00'611.9
2018-Jun-16 07:00N 60°03' E 024°58'713.3
2018-Jun-16 06:30N 59°56' E 024°58'612.7
2018-Jun-16 06:00N 59°53' E 025°09'713.6
2018-Jun-16 05:30N 59°54' E 025°22'713.4
2018-Jun-16 05:00N 59°54' E 025°36'713.7
2018-Jun-16 04:30N 59°55' E 025°49'714.0
2018-Jun-16 04:01N 59°57' E 026°02'713.6
2018-Jun-16 03:30N 59°59' E 026°16'713.4
2018-Jun-16 03:01N 60°01' E 026°28'713.4
2018-Jun-16 02:30N 60°01' E 026°42'713.4
2018-Jun-16 01:59N 60°00' E 026°56'613.0
2018-Jun-16 01:31N 60°01' E 027°08'611.7
2018-Jun-16 01:00N 60°04' E 027°18'611.5
2018-Jun-16 00:31N 60°07' E 027°28'611.7
2018-Jun-16 00:00N 60°10' E 027°38'510.8
2018-Jun-15 23:30N 60°12' E 027°48'611.5
2018-Jun-15 23:00N 60°10' E 027°59'611.3
2018-Jun-15 22:30N 60°09' E 028°10'611.5
2018-Jun-15 22:01N 60°06' E 028°20'611.6
2018-Jun-15 21:31N 60°04' E 028°30'611.4
2018-Jun-15 21:00N 60°03' E 028°42'611.9
2018-Jun-15 20:30N 60°03' E 028°54'612.8
2018-Jun-15 20:01N 60°02' E 029°06'611.5
2018-Jun-15 19:30N 60°02' E 029°18'1510.9
2018-Jun-15 18:08N 59°58' E 029°47'210.8
2018-Jun-15 17:58N 59°57' E 029°50'510.7
2018-Jun-15 17:30N 59°55' E 029°59'5 9.5
2018-Jun-15 17:00N 59°54' E 030°08'3 5.4
2018-Jun-15 16:30N 59°54' E 030°13'3 5.2
2018-Jun-15 16:00N 59°56' E 030°17'0 0.3
2018-Jun-15 15:28N 59°56' E 030°17'0 0.0
2018-Jun-15 14:55N 59°56' E 030°17'0 0.0
2018-Jun-15 14:25N 59°56' E 030°17'0 0.0
2018-Jun-15 13:58N 59°56' E 030°17'0 0.0
2018-Jun-15 13:28N 59°56' E 030°17'0 0.0
2018-Jun-15 12:58N 59°56' E 030°17'0 0.0
2018-Jun-15 12:28N 59°56' E 030°17'0 0.0
2018-Jun-15 11:49N 59°56' E 030°17'0 0.0
2018-Jun-15 11:25N 59°56' E 030°17'0 0.0
2018-Jun-15 10:58N 59°56' E 030°17'0 0.0
2018-Jun-15 10:28N 59°56' E 030°17'0 0.0
2018-Jun-15 09:58N 59°56' E 030°17'0 0.0
2018-Jun-15 09:28N 59°56' E 030°17'0 0.0
2018-Jun-15 08:58N 59°56' E 030°17'0 0.0
2018-Jun-15 08:28N 59°56' E 030°17'0 0.0
2018-Jun-15 07:58N 59°56' E 030°17'0 0.0
2018-Jun-15 07:28N 59°56' E 030°17'0 0.0
2018-Jun-15 06:55N 59°56' E 030°17'0 0.0
2018-Jun-15 06:25N 59°56' E 030°17'0 0.0
2018-Jun-15 05:58N 59°56' E 030°17'0 0.0
2018-Jun-15 05:25N 59°56' E 030°17'0 0.0
2018-Jun-15 04:55N 59°56' E 030°17'0 0.0
2018-Jun-15 04:28N 59°56' E 030°17'0 0.0
2018-Jun-15 03:55N 59°56' E 030°17'0 0.0
2018-Jun-15 03:28N 59°56' E 030°17'0 0.0
2018-Jun-15 02:58N 59°56' E 030°17'0 0.0
2018-Jun-15 02:28N 59°56' E 030°17'0 0.0
2018-Jun-15 01:58N 59°56' E 030°17'0 0.0
2018-Jun-15 01:25N 59°56' E 030°17'0 0.0
2018-Jun-15 00:58N 59°56' E 030°17'0 0.0
2018-Jun-15 00:25N 59°56' E 030°17'0 0.0
2018-Jun-14 23:58N 59°56' E 030°17'0 0.0
2018-Jun-14 23:25N 59°56' E 030°17'0 0.0
2018-Jun-14 22:59N 59°56' E 030°17'0 0.0
2018-Jun-14 22:25N 59°56' E 030°17'0 0.0
2018-Jun-14 21:58N 59°56' E 030°17'0 0.0
2018-Jun-14 21:28N 59°56' E 030°17'0 0.0
2018-Jun-14 20:55N 59°56' E 030°17'0 0.0
2018-Jun-14 20:29N 59°56' E 030°17'0 0.0
2018-Jun-14 19:55N 59°56' E 030°17'0 0.0
2018-Jun-14 19:29N 59°56' E 030°17'0 0.0
2018-Jun-14 18:56N 59°56' E 030°17'0 0.0
2018-Jun-14 18:28N 59°56' E 030°17'0 0.0
2018-Jun-14 17:55N 59°56' E 030°17'0 0.0
2018-Jun-14 17:26N 59°56' E 030°17'0 0.0
2018-Jun-14 16:55N 59°56' E 030°17'0 0.0
2018-Jun-14 16:25N 59°56' E 030°17'0 0.0
2018-Jun-14 15:55N 59°56' E 030°17'0 0.0
2018-Jun-14 15:25N 59°56' E 030°17'0 0.0
2018-Jun-14 14:55N 59°56' E 030°17'0 0.0
2018-Jun-14 14:28N 59°56' E 030°17'0 0.0
2018-Jun-14 13:58N 59°56' E 030°17'0 0.0
2018-Jun-14 13:25N 59°56' E 030°17'0 0.0
2018-Jun-14 12:58N 59°56' E 030°17'0 0.0
2018-Jun-14 12:25N 59°56' E 030°17'0 0.0
2018-Jun-14 11:55N 59°56' E 030°17'0 0.0
2018-Jun-14 11:25N 59°56' E 030°17'0 0.0
2018-Jun-14 10:55N 59°56' E 030°17'0 0.0
2018-Jun-14 10:28N 59°56' E 030°17'0 0.0
2018-Jun-14 09:58N 59°56' E 030°17'0 0.0
2018-Jun-14 09:28N 59°56' E 030°17'0 0.0
2018-Jun-14 08:55N 59°56' E 030°17'0 0.0
2018-Jun-14 08:28N 59°56' E 030°17'0 0.0
2018-Jun-14 07:55N 59°56' E 030°17'0 0.0
2018-Jun-14 07:28N 59°56' E 030°17'0 0.4
2018-Jun-14 07:00N 59°56' E 030°17'2 4.5
2018-Jun-14 06:30N 59°54' E 030°14'3 5.0
2018-Jun-14 06:00N 59°53' E 030°09'4 8.0
2018-Jun-14 05:30N 59°55' E 030°02'611.8
2018-Jun-14 04:57N 59°57' E 029°50'1210.5
2018-Jun-14 03:50N 60°01' E 029°27'3 9.7
2018-Jun-14 03:30N 60°02' E 029°21'511.0
2018-Jun-14 03:00N 60°02' E 029°10'510.5
2018-Jun-14 02:30N 60°02' E 028°59'510.8
2018-Jun-14 02:00N 60°02' E 028°49'511.0
2018-Jun-14 01:30N 60°02' E 028°38'611.3
2018-Jun-14 01:00N 60°03' E 028°26'612.0
2018-Jun-14 00:30N 60°07' E 028°17'612.0
2018-Jun-14 00:00N 60°09' E 028°05'612.2
2018-Jun-13 23:30N 60°10' E 027°54'611.2
2018-Jun-13 23:00N 60°09' E 027°42'612.1
2018-Jun-13 22:30N 60°06' E 027°32'611.9
2018-Jun-13 22:00N 60°03' E 027°22'714.0
2018-Jun-13 21:30N 59°59' E 027°10'713.8
2018-Jun-13 21:01N 59°58' E 026°56'714.4
2018-Jun-13 20:30N 59°59' E 026°42'714.5
2018-Jun-13 20:00N 59°58' E 026°28'714.3
2018-Jun-13 19:30N 59°55' E 026°14'714.3
2018-Jun-13 19:00N 59°53' E 026°00'714.1
2018-Jun-13 18:30N 59°52' E 025°47'714.2
2018-Jun-13 18:01N 59°50' E 025°33'714.3
2018-Jun-13 17:31N 59°49' E 025°19'714.2
2018-Jun-13 17:00N 59°48' E 025°05'713.7
2018-Jun-13 16:30N 59°46' E 024°53'713.3
2018-Jun-13 16:01N 59°40' E 024°45'612.4
2018-Jun-13 15:31N 59°34' E 024°43'612.5
2018-Jun-13 15:00N 59°28' E 024°46'1 1.6
2018-Jun-13 14:25N 59°27' E 024°46'0 0.0
2018-Jun-13 14:00N 59°27' E 024°46'0 0.0
2018-Jun-13 13:29N 59°27' E 024°46'0 0.0
2018-Jun-13 12:58N 59°27' E 024°46'0 0.0
2018-Jun-13 12:28N 59°27' E 024°46'0 0.0
2018-Jun-13 11:58N 59°27' E 024°46'0 0.0
2018-Jun-13 11:29N 59°27' E 024°46'0 0.0
2018-Jun-13 10:59N 59°27' E 024°46'0 0.0
2018-Jun-13 10:28N 59°27' E 024°46'0 0.0
2018-Jun-13 09:58N 59°27' E 024°46'0 0.0
2018-Jun-13 09:30N 59°27' E 024°46'0 0.0
2018-Jun-13 08:59N 59°27' E 024°46'0 0.0
2018-Jun-13 08:30N 59°27' E 024°46'3 6.4
2018-Jun-13 08:00N 59°30' E 024°43'611.0
2018-Jun-13 07:30N 59°30' E 024°32'611.7
2018-Jun-13 07:00N 59°30' E 024°21'2814.0
2018-Jun-13 04:59N 59°27' E 023°25'714.2
2018-Jun-13 04:30N 59°26' E 023°12'714.2
2018-Jun-13 03:59N 59°25' E 022°58'3014.0
2018-Jun-13 01:50N 59°25' E 021°59'513.9
2018-Jun-13 01:30N 59°25' E 021°50'713.8
2018-Jun-13 01:00N 59°25' E 021°36'714.0
2018-Jun-13 00:31N 59°26' E 021°23'713.9
2018-Jun-13 00:00N 59°27' E 021°09'713.8
2018-Jun-12 23:29N 59°27' E 020°55'1013.6
2018-Jun-12 22:46N 59°28' E 020°36'513.6
2018-Jun-12 22:22N 59°28' E 020°25'513.6
2018-Jun-12 21:59N 59°28' E 020°15'611.3
2018-Jun-12 21:28N 59°31' E 020°05'713.3
2018-Jun-12 20:55N 59°37' E 019°57'613.7
2018-Jun-12 20:29N 59°42' E 019°49'713.6
2018-Jun-12 20:00N 59°46' E 019°40'713.9
2018-Jun-12 19:30N 59°46' E 019°26'713.2
2018-Jun-12 19:00N 59°44' E 019°14'713.5
2018-Jun-12 18:29N 59°42' E 019°01'5 9.5
2018-Jun-12 17:59N 59°39' E 018°53'611.7
2018-Jun-12 17:30N 59°35' E 018°44'610.9
2018-Jun-12 16:59N 59°33' E 018°35'5 9.8
2018-Jun-12 16:28N 59°29' E 018°27'5 9.9
2018-Jun-12 16:01N 59°25' E 018°25'3 6.2
2018-Jun-12 15:30N 59°22' E 018°25'4 9.0
2018-Jun-12 15:00N 59°22' E 018°16'510.2
2018-Jun-12 14:30N 59°19' E 018°07'1 2.0
2018-Jun-12 14:00N 59°19' E 018°05'0 0.0
2018-Jun-12 13:30N 59°19' E 018°05'0 0.0
2018-Jun-12 13:00N 59°19' E 018°05'0 0.0
2018-Jun-12 12:30N 59°19' E 018°05'0 0.0
2018-Jun-12 12:00N 59°19' E 018°05'0 0.0
2018-Jun-12 11:30N 59°19' E 018°05'0 0.0
2018-Jun-12 11:00N 59°19' E 018°05'0 0.0
2018-Jun-12 10:30N 59°19' E 018°05'0 0.0
2018-Jun-12 10:00N 59°19' E 018°05'0 0.0
2018-Jun-12 09:30N 59°19' E 018°05'  

Dump ship's entire track history